createdAt,value
2023-12-19T00:01:20.768Z,7.30
2023-12-19T00:03:47.472Z,6.85
2023-12-19T00:06:14.104Z,6.18
2023-12-19T00:08:40.445Z,6.78
2023-12-19T00:11:07.293Z,7.28
2023-12-19T00:13:33.760Z,6.25
2023-12-19T00:16:00.324Z,6.60
2023-12-19T00:18:26.923Z,7.38
2023-12-19T00:20:53.373Z,6.55
2023-12-19T00:23:19.859Z,6.82
2023-12-19T00:25:47.227Z,6.93
2023-12-19T00:28:13.543Z,6.05
2023-12-19T00:30:40.174Z,6.20
2023-12-19T00:33:06.797Z,6.30
2023-12-19T00:35:33.354Z,6.63
2023-12-19T00:37:59.679Z,6.45
2023-12-19T00:40:26.046Z,5.70
2023-12-19T00:42:52.441Z,5.85
2023-12-19T00:45:18.857Z,6.57
2023-12-19T00:47:45.545Z,5.97
2023-12-19T00:50:11.926Z,6.05
2023-12-19T00:52:38.302Z,6.47
2023-12-19T00:55:05.170Z,6.55
2023-12-19T00:57:32.640Z,6.00
2023-12-19T00:59:59.011Z,6.32
2023-12-19T01:02:25.382Z,6.85
2023-12-19T01:04:51.852Z,6.22
2023-12-19T01:07:18.266Z,5.78
2023-12-19T01:09:44.705Z,6.10
2023-12-19T01:12:11.088Z,6.78
2023-12-19T01:14:37.421Z,6.78
2023-12-19T01:17:03.884Z,6.80
2023-12-19T01:19:30.473Z,6.53
2023-12-19T01:21:56.890Z,7.40
2023-12-19T01:24:23.320Z,6.45
2023-12-19T01:26:49.735Z,7.35
2023-12-19T01:29:16.748Z,5.72
2023-12-19T01:31:43.340Z,6.90
2023-12-19T01:34:10.542Z,6.43
2023-12-19T01:36:39.581Z,5.97
2023-12-19T01:39:06.000Z,6.28
2023-12-19T01:41:32.397Z,6.13
2023-12-19T01:44:02.302Z,7.03
2023-12-19T01:46:29.133Z,6.55
2023-12-19T01:48:55.826Z,6.00
2023-12-19T01:51:22.367Z,6.95
2023-12-19T01:53:49.549Z,6.47
2023-12-19T01:56:18.420Z,6.07
2023-12-19T01:58:45.746Z,6.25
2023-12-19T02:01:13.567Z,5.95
2023-12-19T02:03:42.449Z,6.57
2023-12-19T02:06:11.919Z,7.10
2023-12-19T02:08:38.257Z,6.05
2023-12-19T02:11:05.121Z,6.53
2023-12-19T02:13:31.653Z,5.85
2023-12-19T02:15:58.313Z,5.55
2023-12-19T02:18:24.863Z,6.40
2023-12-19T02:20:51.286Z,6.35
2023-12-19T02:23:17.772Z,6.22
2023-12-19T02:25:44.131Z,6.18
2023-12-19T02:28:10.632Z,5.68
2023-12-19T02:30:37.563Z,5.90
2023-12-19T02:35:32.176Z,6.13
2023-12-19T02:37:58.574Z,5.47
2023-12-19T02:40:25.058Z,5.57
2023-12-19T02:42:51.522Z,5.25
2023-12-19T02:45:17.969Z,5.55
2023-12-19T02:47:44.418Z,5.45
2023-12-19T02:50:11.182Z,6.15
2023-12-19T02:52:37.489Z,5.63
2023-12-19T02:55:04.225Z,5.57
2023-12-19T02:57:30.717Z,6.20
2023-12-19T02:59:57.114Z,5.82
2023-12-19T03:02:23.534Z,5.57
2023-12-19T03:04:49.941Z,5.05
2023-12-19T03:07:16.560Z,5.60
2023-12-19T03:09:43.001Z,6.15
2023-12-19T03:12:09.529Z,5.60
2023-12-19T03:14:37.636Z,6.22
2023-12-19T03:17:06.540Z,5.43
2023-12-19T03:19:33.039Z,6.65
2023-12-19T03:21:59.551Z,5.07
2023-12-19T03:24:26.037Z,5.63
2023-12-19T03:26:52.423Z,5.78
2023-12-19T03:29:18.767Z,5.47
2023-12-19T03:31:45.161Z,5.95
2023-12-19T03:34:11.987Z,5.38
2023-12-19T03:36:38.760Z,5.40
2023-12-19T03:39:05.208Z,5.55
2023-12-19T03:41:31.673Z,5.38
2023-12-19T03:43:58.052Z,4.85
2023-12-19T03:46:24.498Z,5.82
2023-12-19T03:48:50.977Z,5.20
2023-12-19T03:51:17.476Z,5.15
2023-12-19T03:53:43.841Z,5.30
2023-12-19T03:56:10.249Z,5.78
2023-12-19T03:58:39.297Z,5.03
2023-12-19T04:01:05.774Z,5.28
2023-12-19T04:03:32.281Z,5.55
2023-12-19T04:05:58.709Z,6.05
2023-12-19T04:08:25.077Z,5.07
2023-12-19T04:10:51.656Z,5.40
2023-12-19T04:13:18.112Z,4.97
2023-12-19T04:15:44.566Z,4.30
2023-12-19T04:18:11.883Z,5.90
2023-12-19T04:20:39.109Z,5.07
2023-12-19T04:23:05.486Z,4.25
2023-12-19T04:25:31.816Z,5.20
2023-12-19T04:27:58.211Z,5.57
2023-12-19T04:30:24.771Z,5.43
2023-12-19T04:32:51.318Z,5.53
2023-12-19T04:35:17.701Z,5.30
2023-12-19T04:37:44.097Z,5.10
2023-12-19T04:40:10.788Z,5.13
2023-12-19T04:42:37.175Z,6.32
2023-12-19T04:45:03.787Z,5.20
2023-12-19T04:47:30.216Z,6.00
2023-12-19T04:49:56.743Z,5.75
2023-12-19T04:52:23.350Z,4.65
2023-12-19T04:54:49.730Z,6.03
2023-12-19T04:57:16.115Z,5.25
2023-12-19T04:59:42.530Z,5.63
2023-12-19T05:02:08.946Z,4.93
2023-12-19T05:04:35.395Z,4.70
2023-12-19T05:07:01.921Z,6.18
2023-12-19T05:09:28.398Z,5.20
2023-12-19T05:11:54.770Z,5.75
2023-12-19T05:14:21.186Z,5.53
2023-12-19T05:16:47.600Z,6.00
2023-12-19T05:19:14.465Z,4.90
2023-12-19T05:21:41.124Z,5.28
2023-12-19T05:24:07.604Z,6.53
2023-12-19T05:26:33.995Z,5.20
2023-12-19T05:29:00.464Z,5.80
2023-12-19T05:31:26.970Z,6.57
2023-12-19T05:33:53.469Z,7.03
2023-12-19T05:36:20.133Z,7.45
2023-12-19T05:38:46.462Z,6.05
2023-12-19T05:41:12.796Z,6.38
2023-12-19T05:43:39.200Z,5.93
2023-12-19T05:46:05.630Z,6.03
2023-12-19T05:48:32.106Z,5.80
2023-12-19T05:50:58.556Z,5.38
2023-12-19T05:53:25.056Z,6.10
2023-12-19T05:55:51.510Z,5.28
2023-12-19T05:58:18.217Z,4.88
2023-12-19T06:00:44.965Z,5.18
2023-12-19T06:03:11.632Z,6.10
2023-12-19T06:05:38.027Z,6.00
2023-12-19T06:08:04.756Z,6.55
2023-12-19T06:10:31.151Z,5.38
2023-12-19T06:12:57.499Z,6.00
2023-12-19T06:15:24.310Z,5.90
2023-12-19T06:17:50.841Z,5.05
2023-12-19T06:20:17.368Z,5.38
2023-12-19T06:22:44.102Z,5.57
2023-12-19T06:25:12.391Z,7.05
2023-12-19T06:30:14.773Z,4.53
2023-12-19T06:32:49.304Z,5.22
2023-12-19T06:35:15.815Z,5.38
2023-12-19T06:37:42.380Z,5.22
2023-12-19T06:40:09.330Z,5.38
2023-12-19T06:42:35.766Z,5.40
2023-12-19T06:45:02.165Z,5.32
2023-12-19T06:47:29.393Z,5.20
2023-12-19T06:49:55.975Z,6.72
2023-12-19T06:52:22.633Z,5.68
2023-12-19T06:54:49.116Z,5.35
2023-12-19T06:57:15.764Z,6.13
2023-12-19T06:59:42.113Z,6.35
2023-12-19T07:02:08.788Z,5.55
2023-12-19T07:04:35.313Z,6.45
2023-12-19T07:07:01.816Z,6.95
2023-12-19T07:09:28.263Z,6.82
2023-12-19T07:11:54.640Z,7.13
2023-12-19T07:14:20.968Z,6.18
2023-12-19T07:16:47.688Z,7.65
2023-12-19T07:19:17.338Z,7.10
2023-12-19T07:21:43.787Z,5.82
2023-12-19T07:24:10.671Z,6.95
2023-12-19T07:26:37.018Z,5.75
2023-12-19T07:29:03.668Z,5.93
2023-12-19T07:31:31.571Z,6.88
2023-12-19T07:36:29.300Z,6.15
2023-12-19T07:38:55.753Z,6.20
2023-12-19T07:41:23.640Z,6.05
2023-12-19T07:43:50.333Z,6.53
2023-12-19T07:46:16.730Z,6.25
2023-12-19T07:48:43.171Z,6.43
2023-12-19T07:51:15.320Z,6.55
2023-12-19T07:53:41.658Z,7.28
2023-12-19T07:56:08.232Z,7.38
2023-12-19T07:58:34.587Z,7.00
2023-12-19T08:01:01.582Z,6.28
2023-12-19T08:03:31.922Z,6.32
2023-12-19T08:05:58.380Z,7.13
2023-12-19T08:08:24.771Z,5.93
2023-12-19T08:10:51.806Z,6.40
2023-12-19T08:13:18.888Z,7.00
2023-12-19T08:15:46.382Z,6.20
2023-12-19T08:18:12.874Z,7.05
2023-12-19T08:20:39.423Z,6.20
2023-12-19T08:23:05.864Z,5.97
2023-12-19T08:25:32.661Z,7.22
2023-12-19T08:27:59.130Z,5.32
2023-12-19T08:30:26.237Z,6.20
2023-12-19T08:32:52.670Z,6.47
2023-12-19T08:35:19.052Z,8.20
2023-12-19T08:37:45.683Z,6.78
2023-12-19T08:40:12.409Z,6.90
2023-12-19T08:42:38.936Z,6.03
2023-12-19T08:45:05.726Z,6.70
2023-12-19T08:47:32.072Z,7.03
2023-12-19T08:49:58.734Z,6.45
2023-12-19T08:52:25.441Z,5.70
2023-12-19T08:54:51.936Z,5.82
2023-12-19T08:57:18.364Z,6.88
2023-12-19T08:59:44.773Z,6.10
2023-12-19T09:02:11.122Z,6.43
2023-12-19T09:04:37.678Z,5.80
2023-12-19T09:07:04.327Z,5.63
2023-12-19T09:09:30.716Z,6.43
2023-12-19T09:11:57.105Z,5.43
2023-12-19T09:14:23.531Z,5.88
2023-12-19T09:16:49.900Z,5.75
2023-12-19T09:19:16.684Z,4.85
2023-12-19T09:21:43.176Z,5.93
2023-12-19T09:24:09.592Z,5.75
2023-12-19T09:26:39.345Z,5.80
2023-12-19T09:29:08.665Z,5.90
2023-12-19T09:31:35.307Z,6.13
2023-12-19T09:34:02.003Z,5.85
2023-12-19T09:36:28.449Z,5.10
2023-12-19T09:38:54.799Z,5.53
2023-12-19T09:41:21.236Z,5.70
2023-12-19T09:43:47.660Z,5.72
2023-12-19T09:46:14.060Z,4.47
2023-12-19T09:48:42.650Z,5.40
2023-12-19T09:51:19.846Z,6.40
2023-12-19T09:53:49.143Z,5.70
2023-12-19T09:56:16.924Z,5.20
2023-12-19T09:58:45.616Z,6.38
2023-12-19T10:01:12.299Z,6.25
2023-12-19T10:03:38.819Z,5.43
2023-12-19T10:06:05.614Z,5.68
2023-12-19T10:08:32.290Z,5.40
2023-12-19T10:10:58.623Z,5.45
2023-12-19T10:13:33.174Z,4.95
2023-12-19T10:16:29.458Z,4.97
2023-12-19T10:18:56.755Z,4.85
2023-12-19T10:21:23.879Z,5.00
2023-12-19T10:23:50.218Z,5.25
2023-12-19T10:26:16.596Z,5.70
2023-12-19T10:28:42.927Z,4.78
2023-12-19T10:31:11.484Z,4.82
2023-12-19T10:33:43.895Z,5.53
2023-12-19T10:36:28.347Z,5.18
2023-12-19T10:38:56.370Z,5.10
2023-12-19T10:41:25.478Z,5.80
2023-12-19T10:43:53.555Z,4.95
2023-12-19T10:46:20.736Z,5.25
2023-12-19T10:48:47.251Z,6.00
2023-12-19T10:51:17.179Z,5.53
2023-12-19T10:53:47.988Z,5.68
2023-12-19T10:56:17.377Z,5.15
2023-12-19T10:58:49.675Z,5.25
2023-12-19T11:01:20.068Z,5.40
2023-12-19T11:03:56.837Z,4.95
2023-12-19T11:06:26.605Z,4.70
2023-12-19T11:08:55.745Z,5.40
2023-12-19T11:11:31.888Z,5.50
2023-12-19T11:14:00.909Z,5.28
2023-12-19T11:16:33.936Z,5.47
2023-12-19T11:19:16.884Z,6.53
2023-12-19T11:21:58.303Z,7.57
2023-12-19T11:24:29.979Z,7.18
2023-12-19T11:27:17.775Z,7.20
2023-12-19T11:29:45.019Z,5.68
2023-12-19T11:32:34.796Z,6.30
2023-12-19T11:35:07.226Z,5.97
2023-12-19T11:37:35.155Z,5.95
2023-12-19T11:40:01.541Z,5.88
2023-12-19T11:42:40.715Z,5.07
2023-12-19T11:45:19.572Z,5.78
2023-12-19T11:47:47.577Z,6.15
2023-12-19T11:50:45.943Z,5.90
2023-12-19T11:53:12.321Z,5.90
2023-12-19T11:55:38.692Z,5.95
2023-12-19T11:58:12.789Z,6.05
2023-12-19T12:00:42.504Z,6.13
2023-12-19T12:03:12.979Z,5.40
2023-12-19T12:05:40.303Z,5.13
2023-12-19T12:08:07.307Z,6.18
2023-12-19T12:10:33.691Z,5.45
2023-12-19T12:13:03.490Z,5.00
2023-12-19T12:15:29.943Z,4.95
2023-12-19T12:18:07.955Z,5.32
2023-12-19T12:20:35.090Z,4.63
2023-12-19T12:23:02.590Z,4.40
2023-12-19T12:25:29.872Z,4.03
2023-12-19T12:28:09.408Z,4.40
2023-12-19T12:30:37.122Z,4.03
2023-12-19T12:33:05.408Z,3.97
2023-12-19T12:35:35.170Z,4.70
2023-12-19T12:38:09.167Z,4.45
2023-12-19T12:40:35.533Z,4.75
2023-12-19T12:43:29.040Z,4.20
2023-12-19T12:46:06.088Z,4.43
2023-12-19T12:48:32.593Z,5.18
2023-12-19T12:50:59.999Z,5.50
2023-12-19T12:53:26.502Z,4.88
2023-12-19T12:56:14.671Z,4.85
2023-12-19T12:58:41.612Z,4.72
2023-12-19T13:01:09.202Z,4.22
2023-12-19T13:06:03.090Z,3.70
2023-12-19T13:08:30.271Z,3.78
2023-12-19T13:11:00.741Z,2.97
2023-12-19T13:13:27.768Z,3.45
2023-12-19T13:15:54.514Z,2.90
2023-12-19T13:18:22.707Z,3.22
2023-12-19T13:20:49.730Z,3.15
2023-12-19T13:23:16.234Z,2.85
2023-12-19T13:25:42.658Z,2.70
2023-12-19T13:28:09.511Z,3.10
2023-12-19T13:30:38.716Z,3.10
2023-12-19T13:33:06.976Z,3.20
2023-12-19T13:35:35.925Z,3.08
2023-12-19T13:38:02.884Z,3.00
2023-12-19T13:40:29.466Z,3.10
2023-12-19T13:42:56.902Z,2.85
2023-12-19T13:45:30.484Z,2.67
2023-12-19T13:47:57.633Z,3.25
2023-12-19T13:50:24.096Z,2.78
2023-12-19T13:52:50.510Z,2.88
2023-12-19T13:55:17.512Z,2.72
2023-12-19T13:57:44.527Z,2.58
2023-12-19T14:00:16.747Z,2.72
2023-12-19T14:02:46.078Z,2.90
2023-12-19T14:05:12.763Z,3.30
2023-12-19T14:07:40.224Z,2.63
2023-12-19T14:10:07.956Z,2.67
2023-12-19T14:12:38.289Z,2.70
2023-12-19T14:15:05.300Z,2.67
2023-12-19T14:17:31.953Z,2.72
2023-12-19T14:19:58.360Z,2.92
2023-12-19T14:22:24.792Z,3.13
2023-12-19T14:24:51.243Z,2.63
2023-12-19T14:27:17.638Z,2.83
2023-12-19T14:29:43.984Z,3.28
2023-12-19T14:32:10.336Z,3.05
2023-12-19T14:34:36.803Z,2.83
2023-12-19T14:37:03.301Z,2.75
2023-12-19T14:39:29.810Z,2.75
2023-12-19T14:41:56.294Z,3.10
2023-12-19T14:44:22.625Z,2.70
2023-12-19T14:46:49.002Z,2.70
2023-12-19T14:49:15.920Z,2.70
2023-12-19T14:51:42.582Z,2.67
2023-12-19T14:54:08.955Z,2.83
2023-12-19T14:56:35.297Z,2.63
2023-12-19T14:59:01.684Z,2.90
2023-12-19T15:01:28.114Z,2.70
2023-12-19T15:03:54.527Z,2.17
2023-12-19T15:06:21.730Z,2.50
2023-12-19T15:08:48.312Z,2.83
2023-12-19T15:11:14.912Z,2.58
2023-12-19T15:13:41.676Z,2.97
2023-12-19T15:16:08.095Z,3.00
2023-12-19T15:18:39.291Z,2.72
2023-12-19T15:21:07.158Z,3.10
2023-12-19T15:23:34.416Z,2.80
2023-12-19T15:26:00.958Z,3.05
2023-12-19T15:28:27.367Z,2.55
2023-12-19T15:30:53.783Z,2.75
2023-12-19T15:33:20.246Z,2.88
2023-12-19T15:35:46.701Z,2.80
2023-12-19T15:38:13.069Z,2.70
2023-12-19T15:40:42.213Z,3.20
2023-12-19T15:43:08.721Z,2.60
2023-12-19T15:45:35.167Z,2.65
2023-12-19T15:48:01.657Z,2.53
2023-12-19T15:50:28.012Z,2.97
2023-12-19T15:52:54.344Z,2.90
2023-12-19T15:55:20.740Z,3.00
2023-12-19T15:57:47.137Z,2.70
2023-12-19T16:00:14.119Z,2.67
2023-12-19T16:02:46.048Z,2.60
2023-12-19T16:05:15.386Z,3.08
2023-12-19T16:07:41.767Z,2.72
2023-12-19T16:10:08.491Z,2.70
2023-12-19T16:12:35.133Z,2.92
2023-12-19T16:15:01.538Z,2.75
2023-12-19T16:17:27.927Z,2.38
2023-12-19T16:19:54.375Z,3.10
2023-12-19T16:22:21.690Z,2.63
2023-12-19T16:24:48.117Z,2.50
2023-12-19T16:27:14.494Z,3.35
2023-12-19T16:29:40.841Z,2.10
2023-12-19T16:32:07.358Z,2.88
2023-12-19T16:34:34.129Z,3.17
2023-12-19T16:37:00.703Z,3.13
2023-12-19T16:39:27.124Z,3.00
2023-12-19T16:41:53.459Z,3.60
2023-12-19T16:44:19.782Z,3.78
2023-12-19T16:46:47.192Z,3.38
2023-12-19T16:49:13.821Z,3.40
2023-12-19T16:51:40.636Z,4.93
2023-12-19T16:54:07.196Z,3.03
2023-12-19T16:56:34.800Z,2.67
2023-12-19T16:59:02.096Z,5.13
2023-12-19T17:01:28.493Z,3.30
2023-12-19T17:03:55.474Z,2.75
2023-12-19T17:06:21.887Z,3.60
2023-12-19T17:08:48.213Z,3.58
2023-12-19T17:11:14.623Z,5.85
2023-12-19T17:13:40.951Z,3.47
2023-12-19T17:16:07.409Z,2.83
2023-12-19T17:18:34.056Z,3.50
2023-12-19T17:21:00.672Z,3.88
2023-12-19T17:23:30.864Z,3.03
2023-12-19T17:26:03.144Z,3.20
2023-12-19T17:28:29.585Z,2.85
2023-12-19T17:30:55.984Z,3.17
2023-12-19T17:33:22.350Z,3.45
2023-12-19T17:35:48.750Z,3.05
2023-12-19T17:38:15.109Z,2.95
2023-12-19T17:40:41.494Z,2.95
2023-12-19T17:43:07.938Z,3.03
2023-12-19T17:45:34.274Z,3.75
2023-12-19T17:48:00.699Z,3.47
2023-12-19T17:50:27.186Z,3.70
2023-12-19T17:52:53.620Z,3.05
2023-12-19T17:55:19.998Z,3.40
2023-12-19T17:57:46.408Z,3.15
2023-12-19T18:00:13.136Z,4.68
2023-12-19T18:02:39.773Z,3.90
2023-12-19T18:05:06.408Z,3.60
2023-12-19T18:07:32.937Z,3.80
2023-12-19T18:09:59.409Z,3.95
2023-12-19T18:12:25.793Z,3.47
2023-12-19T18:14:52.346Z,3.38
2023-12-19T18:17:18.748Z,3.40
2023-12-19T18:19:45.366Z,3.67
2023-12-19T18:22:11.821Z,3.83
2023-12-19T18:24:38.290Z,3.63
2023-12-19T18:27:05.240Z,3.35
2023-12-19T18:29:32.051Z,3.95
2023-12-19T18:31:58.461Z,3.78
2023-12-19T18:34:25.009Z,4.15
2023-12-19T18:36:51.504Z,4.20
2023-12-19T18:39:18.156Z,4.63
2023-12-19T18:41:47.564Z,4.13
2023-12-19T18:44:13.900Z,4.15
2023-12-19T18:46:41.352Z,5.75
2023-12-19T18:49:09.456Z,4.97
2023-12-19T18:51:36.055Z,4.25
2023-12-19T18:54:02.498Z,4.70
2023-12-19T18:56:28.953Z,4.43
2023-12-19T18:58:55.292Z,10.10
2023-12-19T19:01:23.682Z,10.77
2023-12-19T19:03:50.321Z,8.68
2023-12-19T19:06:16.732Z,9.43
2023-12-19T19:08:43.354Z,8.60
2023-12-19T19:11:09.755Z,5.60
2023-12-19T19:13:36.318Z,4.75
2023-12-19T19:16:02.859Z,4.65
2023-12-19T19:18:31.064Z,5.03
2023-12-19T19:20:57.710Z,5.25
2023-12-19T19:23:24.111Z,5.30
2023-12-19T19:25:50.582Z,5.78
2023-12-19T19:28:17.129Z,5.80
2023-12-19T19:30:47.550Z,10.18
2023-12-19T19:33:14.425Z,12.98
2023-12-19T19:35:40.938Z,13.88
2023-12-19T19:38:07.569Z,12.15
2023-12-19T19:40:41.398Z,13.35
2023-12-19T19:43:11.235Z,7.13
2023-12-19T19:45:38.286Z,8.02
2023-12-19T19:48:05.364Z,7.05
2023-12-19T19:50:31.821Z,5.63
2023-12-19T19:52:59.321Z,7.70
2023-12-19T19:55:26.207Z,7.10
2023-12-19T19:57:52.983Z,6.20
2023-12-19T20:00:19.675Z,5.85
2023-12-19T20:02:46.198Z,6.68
2023-12-19T20:05:13.028Z,6.13
2023-12-19T20:07:39.639Z,5.43
2023-12-19T20:10:06.836Z,5.50
2023-12-19T20:12:33.592Z,6.28
2023-12-19T20:17:51.229Z,5.82
2023-12-19T20:20:17.736Z,5.03
2023-12-19T20:22:44.359Z,8.48
2023-12-19T20:25:12.129Z,9.10
2023-12-19T20:30:28.607Z,5.63
2023-12-19T20:32:55.036Z,4.63
2023-12-19T20:35:21.451Z,4.32
2023-12-19T20:37:51.434Z,4.28
2023-12-19T20:40:18.037Z,3.53
2023-12-19T20:45:34.839Z,3.38
2023-12-19T20:50:52.139Z,3.28
2023-12-19T20:53:18.584Z,3.00
2023-12-19T20:55:45.209Z,3.30
2023-12-19T20:58:11.674Z,3.10
2023-12-19T21:00:38.152Z,3.38
2023-12-19T21:03:04.633Z,3.20
2023-12-19T21:05:31.027Z,3.05
2023-12-19T21:07:57.447Z,2.70
2023-12-19T21:10:23.850Z,2.95
2023-12-19T21:12:50.522Z,2.67
2023-12-19T21:15:17.021Z,2.83
2023-12-19T21:17:43.550Z,2.80
2023-12-19T21:20:10.663Z,2.70
2023-12-19T21:22:37.005Z,3.05
2023-12-19T21:25:03.911Z,2.83
2023-12-19T21:27:30.458Z,3.10
2023-12-19T21:29:56.887Z,2.65
2023-12-19T21:32:23.218Z,2.90
2023-12-19T21:34:49.784Z,2.85
2023-12-19T21:37:16.360Z,2.70
2023-12-19T21:39:42.871Z,2.65
2023-12-19T21:42:09.330Z,2.53
2023-12-19T21:44:35.687Z,3.58
2023-12-19T21:47:03.200Z,2.47
2023-12-19T21:49:29.722Z,2.90
2023-12-19T21:51:56.158Z,2.28
2023-12-19T21:54:22.615Z,2.35
2023-12-19T21:56:49.063Z,2.65
2023-12-19T21:59:15.469Z,2.40
2023-12-19T22:01:45.258Z,2.03
2023-12-19T22:04:11.956Z,2.60
2023-12-19T22:06:38.530Z,2.80
2023-12-19T22:09:05.085Z,2.47
2023-12-19T22:11:36.638Z,2.58
2023-12-19T22:14:05.577Z,2.50
2023-12-19T22:16:32.903Z,2.38
2023-12-19T22:19:00.313Z,2.40
2023-12-19T22:21:26.950Z,2.22
2023-12-19T22:23:53.947Z,2.38
2023-12-19T22:26:21.014Z,2.75
2023-12-19T22:28:48.966Z,2.33
2023-12-19T22:31:16.276Z,2.35
2023-12-19T22:33:42.929Z,2.75
2023-12-19T22:36:09.385Z,2.75
2023-12-19T22:38:36.916Z,2.88
2023-12-19T22:41:03.444Z,2.83
2023-12-19T22:43:29.781Z,2.85
2023-12-19T22:45:56.313Z,2.97
2023-12-19T22:48:22.914Z,3.20
2023-12-19T22:50:50.335Z,2.85
2023-12-19T22:53:16.679Z,3.10
2023-12-19T22:55:43.001Z,2.92
2023-12-19T22:58:09.877Z,3.40
2023-12-19T23:00:36.501Z,3.20
2023-12-19T23:03:03.240Z,3.30
2023-12-19T23:05:29.568Z,3.15
2023-12-19T23:07:56.015Z,3.28
2023-12-19T23:10:22.613Z,3.17
2023-12-19T23:12:49.778Z,3.50
2023-12-19T23:15:16.188Z,3.90
2023-12-19T23:17:42.607Z,3.70
2023-12-19T23:20:09.850Z,3.50
2023-12-19T23:22:36.374Z,3.42
2023-12-19T23:25:02.777Z,3.45
2023-12-19T23:27:29.146Z,3.05
2023-12-19T23:29:55.528Z,3.45
2023-12-19T23:32:21.919Z,3.83
2023-12-19T23:34:48.318Z,3.80
2023-12-19T23:37:14.936Z,3.08
2023-12-19T23:39:41.429Z,3.60
2023-12-19T23:42:07.854Z,3.08
2023-12-19T23:44:34.194Z,3.35
2023-12-19T23:47:00.521Z,3.72
2023-12-19T23:49:26.981Z,3.20
2023-12-19T23:51:53.467Z,3.15
2023-12-19T23:54:19.867Z,3.25
2023-12-19T23:56:46.288Z,3.35
2023-12-19T23:59:12.719Z,2.75
